sensor_id;sensor_type;location;lat;lon;timestamp;pressure;altitude;pressure_sealevel;temperature;humidity
75221;BME280;63802;53.232;6.570;2023-11-18T00:00:51;102366.69;;;3.41;100.00
75221;BME280;63802;53.232;6.570;2023-11-18T00:03:16;102372.84;;;3.46;100.00
75221;BME280;63802;53.232;6.570;2023-11-18T00:05:42;102368.84;;;3.38;100.00
75221;BME280;63802;53.232;6.570;2023-11-18T00:08:07;102350.81;;;3.24;100.00
75221;BME280;63802;53.232;6.570;2023-11-18T00:10:33;102377.22;;;3.37;100.00
75221;BME280;63802;53.232;6.570;2023-11-18T00:12:58;102375.59;;;3.36;100.00
75221;BME280;63802;53.232;6.570;2023-11-18T00:15:24;102376.94;;;3.38;100.00
75221;BME280;63802;53.232;6.570;2023-11-18T00:17:49;102379.91;;;3.42;100.00
75221;BME280;63802;53.232;6.570;2023-11-18T00:20:15;102380.41;;;3.44;100.00
75221;BME280;63802;53.232;6.570;2023-11-18T00:22:41;102357.00;;;3.34;100.00
75221;BME280;63802;53.232;6.570;2023-11-18T00:25:07;102354.00;;;3.36;100.00
75221;BME280;63802;53.232;6.570;2023-11-18T00:27:34;102333.84;;;3.23;100.00
75221;BME280;63802;53.232;6.570;2023-11-18T00:30:08;102362.91;;;3.36;100.00
75221;BME280;63802;53.232;6.570;2023-11-18T00:32:33;102371.78;;;3.47;100.00
75221;BME280;63802;53.232;6.570;2023-11-18T00:34:59;102348.66;;;3.31;100.00
75221;BME280;63802;53.232;6.570;2023-11-18T00:37:26;102365.88;;;3.40;100.00
75221;BME280;63802;53.232;6.570;2023-11-18T00:39:52;102347.84;;;3.30;100.00
75221;BME280;63802;53.232;6.570;2023-11-18T00:42:17;102355.66;;;3.32;100.00
75221;BME280;63802;53.232;6.570;2023-11-18T00:44:43;102336.28;;;3.20;100.00
75221;BME280;63802;53.232;6.570;2023-11-18T00:47:08;102365.38;;;3.33;100.00
75221;BME280;63802;53.232;6.570;2023-11-18T00:49:34;102348.16;;;3.19;100.00
75221;BME280;63802;53.232;6.570;2023-11-18T00:51:59;102370.47;;;3.39;100.00
75221;BME280;63802;53.232;6.570;2023-11-18T00:54:25;102337.38;;;3.19;100.00
75221;BME280;63802;53.232;6.570;2023-11-18T00:56:50;102348.94;;;3.24;100.00
75221;BME280;63802;53.232;6.570;2023-11-18T00:59:16;102361.03;;;3.32;100.00
75221;BME280;63802;53.232;6.570;2023-11-18T01:01:41;102357.84;;;3.25;100.00
75221;BME280;63802;53.232;6.570;2023-11-18T01:04:08;102357.88;;;3.15;100.00
75221;BME280;63802;53.232;6.570;2023-11-18T01:06:34;102365.44;;;3.13;100.00
75221;BME280;63802;53.232;6.570;2023-11-18T01:08:59;102363.31;;;3.00;100.00
75221;BME280;63802;53.232;6.570;2023-11-18T01:11:26;102367.06;;;3.14;100.00
75221;BME280;63802;53.232;6.570;2023-11-18T01:13:51;102351.47;;;2.91;100.00
75221;BME280;63802;53.232;6.570;2023-11-18T01:16:17;102362.81;;;2.88;100.00
75221;BME280;63802;53.232;6.570;2023-11-18T01:18:44;102373.53;;;3.08;100.00
75221;BME280;63802;53.232;6.570;2023-11-18T01:21:11;102370.59;;;2.99;100.00
75221;BME280;63802;53.232;6.570;2023-11-18T01:23:37;102364.41;;;2.99;100.00
75221;BME280;63802;53.232;6.570;2023-11-18T01:26:06;102376.25;;;3.03;100.00
75221;BME280;63802;53.232;6.570;2023-11-18T01:28:36;102361.16;;;2.97;100.00
75221;BME280;63802;53.232;6.570;2023-11-18T01:31:04;102333.19;;;2.72;100.00
75221;BME280;63802;53.232;6.570;2023-11-18T01:33:30;102360.66;;;2.90;100.00
75221;BME280;63802;53.232;6.570;2023-11-18T01:35:57;102326.22;;;2.61;100.00
75221;BME280;63802;53.232;6.570;2023-11-18T01:38:23;102364.41;;;2.89;100.00
75221;BME280;63802;53.232;6.570;2023-11-18T01:40:48;102336.19;;;2.61;100.00
75221;BME280;63802;53.232;6.570;2023-11-18T01:43:13;102342.63;;;2.65;100.00
75221;BME280;63802;53.232;6.570;2023-11-18T01:45:40;102362.84;;;2.72;100.00
75221;BME280;63802;53.232;6.570;2023-11-18T01:48:06;102353.69;;;2.68;100.00
75221;BME280;63802;53.232;6.570;2023-11-18T01:50:35;102347.50;;;2.58;100.00
75221;BME280;63802;53.232;6.570;2023-11-18T01:53:03;102346.41;;;2.59;100.00
75221;BME280;63802;53.232;6.570;2023-11-18T01:55:29;102348.31;;;2.58;100.00
75221;BME280;63802;53.232;6.570;2023-11-18T01:57:54;102345.34;;;2.55;100.00
75221;BME280;63802;53.232;6.570;2023-11-18T02:00:22;102355.84;;;2.56;100.00
75221;BME280;63802;53.232;6.570;2023-11-18T02:02:48;102360.16;;;2.57;100.00
75221;BME280;63802;53.232;6.570;2023-11-18T02:05:14;102354.22;;;2.55;100.00
75221;BME280;63802;53.232;6.570;2023-11-18T02:07:41;102343.19;;;2.42;100.00
75221;BME280;63802;53.232;6.570;2023-11-18T02:10:08;102348.03;;;2.50;100.00
75221;BME280;63802;53.232;6.570;2023-11-18T02:12:43;102352.06;;;2.47;100.00
75221;BME280;63802;53.232;6.570;2023-11-18T02:15:10;102357.19;;;2.54;100.00
75221;BME280;63802;53.232;6.570;2023-11-18T02:17:38;102356.91;;;2.60;100.00
75221;BME280;63802;53.232;6.570;2023-11-18T02:20:05;102360.16;;;2.62;100.00
75221;BME280;63802;53.232;6.570;2023-11-18T02:22:43;102331.31;;;2.48;100.00
75221;BME280;63802;53.232;6.570;2023-11-18T02:25:15;102356.09;;;2.60;100.00
75221;BME280;63802;53.232;6.570;2023-11-18T02:27:41;102336.44;;;2.54;100.00
75221;BME280;63802;53.232;6.570;2023-11-18T02:30:07;102336.44;;;2.54;100.00
75221;BME280;63802;53.232;6.570;2023-11-18T02:32:40;102355.81;;;2.71;100.00
75221;BME280;63802;53.232;6.570;2023-11-18T02:37:49;102349.34;;;2.83;100.00
75221;BME280;63802;53.232;6.570;2023-11-18T02:40:19;102326.75;;;2.68;100.00
75221;BME280;63802;53.232;6.570;2023-11-18T02:42:45;102357.44;;;2.88;100.00
75221;BME280;63802;53.232;6.570;2023-11-18T02:45:13;102352.28;;;2.81;100.00
75221;BME280;63802;53.232;6.570;2023-11-18T02:47:45;102355.56;;;2.83;100.00
75221;BME280;63802;53.232;6.570;2023-11-18T02:50:11;102345.03;;;2.82;100.00
75221;BME280;63802;53.232;6.570;2023-11-18T02:52:38;102343.13;;;2.92;100.00
75221;BME280;63802;53.232;6.570;2023-11-18T02:55:05;102335.28;;;2.96;100.00
75221;BME280;63802;53.232;6.570;2023-11-18T02:57:34;102333.66;;;3.00;100.00
75221;BME280;63802;53.232;6.570;2023-11-18T03:00:00;102323.66;;;3.00;100.00
75221;BME280;63802;53.232;6.570;2023-11-18T03:02:28;102326.34;;;3.05;100.00
75221;BME280;63802;53.232;6.570;2023-11-18T03:04:56;102306.19;;;2.93;100.00
75221;BME280;63802;53.232;6.570;2023-11-18T03:07:21;102305.59;;;3.01;100.00
75221;BME280;63802;53.232;6.570;2023-11-18T03:09:46;102333.88;;;3.13;100.00
75221;BME280;63802;53.232;6.570;2023-11-18T03:12:12;102310.97;;;3.11;100.00
75221;BME280;63802;53.232;6.570;2023-11-18T03:14:38;102309.91;;;3.12;100.00
75221;BME280;63802;53.232;6.570;2023-11-18T03:17:04;102311.50;;;3.13;100.00
75221;BME280;63802;53.232;6.570;2023-11-18T03:19:32;102297.22;;;3.07;100.00
75221;BME280;63802;53.232;6.570;2023-11-18T03:22:01;102262.56;;;2.81;100.00
75221;BME280;63802;53.232;6.570;2023-11-18T03:24:27;102280.31;;;2.87;100.00
75221;BME280;63802;53.232;6.570;2023-11-18T03:26:54;102277.09;;;2.85;100.00
75221;BME280;63802;53.232;6.570;2023-11-18T03:29:20;102310.47;;;2.99;100.00
75221;BME280;63802;53.232;6.570;2023-11-18T03:31:45;102305.34;;;3.02;100.00
75221;BME280;63802;53.232;6.570;2023-11-18T03:34:17;102315.84;;;2.99;100.00
75221;BME280;63802;53.232;6.570;2023-11-18T03:36:45;102321.78;;;3.01;100.00
75221;BME280;63802;53.232;6.570;2023-11-18T03:39:11;102325.03;;;2.98;100.00
75221;BME280;63802;53.232;6.570;2023-11-18T03:41:37;102308.31;;;2.96;100.00
75221;BME280;63802;53.232;6.570;2023-11-18T03:44:04;102286.25;;;2.84;100.00
75221;BME280;63802;53.232;6.570;2023-11-18T03:46:29;102267.38;;;2.79;100.00
75221;BME280;63802;53.232;6.570;2023-11-18T03:48:57;102272.25;;;2.82;100.00
75221;BME280;63802;53.232;6.570;2023-11-18T03:51:23;102309.94;;;3.02;100.00
75221;BME280;63802;53.232;6.570;2023-11-18T03:53:49;102301.88;;;2.92;100.00
75221;BME280;63802;53.232;6.570;2023-11-18T03:56:17;102298.13;;;2.88;100.00
75221;BME280;63802;53.232;6.570;2023-11-18T03:58:46;102252.88;;;2.69;100.00
75221;BME280;63802;53.232;6.570;2023-11-18T04:01:21;102270.34;;;2.87;100.00
75221;BME280;63802;53.232;6.570;2023-11-18T04:03:47;102256.03;;;2.92;100.00
75221;BME280;63802;53.232;6.570;2023-11-18T04:06:12;102258.72;;;2.97;100.00
75221;BME280;63802;53.232;6.570;2023-11-18T04:08:42;102265.47;;;2.89;100.00
75221;BME280;63802;53.232;6.570;2023-11-18T04:11:08;102235.34;;;2.77;100.00
75221;BME280;63802;53.232;6.570;2023-11-18T04:13:34;102226.97;;;2.73;100.00
75221;BME280;63802;53.232;6.570;2023-11-18T04:15:59;102249.81;;;2.96;100.00
75221;BME280;63802;53.232;6.570;2023-11-18T04:18:25;102263.59;;;2.95;100.00
75221;BME280;63802;53.232;6.570;2023-11-18T04:20:51;102242.59;;;2.82;100.00
75221;BME280;63802;53.232;6.570;2023-11-18T04:23:17;102214.88;;;2.71;100.00
75221;BME280;63802;53.232;6.570;2023-11-18T04:25:43;102252.28;;;2.93;100.00
75221;BME280;63802;53.232;6.570;2023-11-18T04:28:08;102247.66;;;2.93;100.00
75221;BME280;63802;53.232;6.570;2023-11-18T04:30:35;102241.47;;;2.93;100.00
75221;BME280;63802;53.232;6.570;2023-11-18T04:33:01;102223.19;;;2.80;100.00
75221;BME280;63802;53.232;6.570;2023-11-18T04:35:26;102242.84;;;2.90;100.00
75221;BME280;63802;53.232;6.570;2023-11-18T04:37:52;102218.88;;;2.79;100.00
75221;BME280;63802;53.232;6.570;2023-11-18T04:40:18;102206.75;;;2.76;100.00
75221;BME280;63802;53.232;6.570;2023-11-18T04:42:43;102217.28;;;2.78;100.00
75221;BME280;63802;53.232;6.570;2023-11-18T04:45:09;102233.97;;;2.85;100.00
75221;BME280;63802;53.232;6.570;2023-11-18T04:47:35;102238.31;;;2.81;100.00
75221;BME280;63802;53.232;6.570;2023-11-18T04:50:02;102239.91;;;2.82;100.00
75221;BME280;63802;53.232;6.570;2023-11-18T04:52:29;102215.66;;;2.71;100.00
75221;BME280;63802;53.232;6.570;2023-11-18T04:54:55;102208.16;;;2.68;100.00
75221;BME280;63802;53.232;6.570;2023-11-18T04:57:21;102228.56;;;2.85;100.00
75221;BME280;63802;53.232;6.570;2023-11-18T04:59:46;102225.84;;;2.90;100.00
75221;BME280;63802;53.232;6.570;2023-11-18T05:02:11;102223.69;;;2.92;100.00
75221;BME280;63802;53.232;6.570;2023-11-18T05:04:37;102209.41;;;2.86;100.00
75221;BME280;63802;53.232;6.570;2023-11-18T05:07:03;102225.31;;;2.93;100.00
75221;BME280;63802;53.232;6.570;2023-11-18T05:09:29;102216.41;;;2.92;100.00
75221;BME280;63802;53.232;6.570;2023-11-18T05:11:54;102208.59;;;2.86;100.00
75221;BME280;63802;53.232;6.570;2023-11-18T05:14:20;102215.59;;;2.92;100.00
75221;BME280;63802;53.232;6.570;2023-11-18T05:16:46;102223.13;;;2.95;100.00
75221;BME280;63802;53.232;6.570;2023-11-18T05:19:12;102212.34;;;2.95;100.00
75221;BME280;63802;53.232;6.570;2023-11-18T05:21:37;102218.53;;;2.95;100.00
75221;BME280;63802;53.232;6.570;2023-11-18T05:24:03;102193.25;;;2.81;100.00
75221;BME280;63802;53.232;6.570;2023-11-18T05:26:28;102191.38;;;2.82;100.00
75221;BME280;63802;53.232;6.570;2023-11-18T05:28:54;102206.97;;;2.95;100.00
75221;BME280;63802;53.232;6.570;2023-11-18T05:31:19;102151.88;;;2.57;100.00
75221;BME280;63802;53.232;6.570;2023-11-18T05:33:45;102209.38;;;2.91;100.00
75221;BME280;63802;53.232;6.570;2023-11-18T05:36:20;102219.97;;;2.83;100.00
75221;BME280;63802;53.232;6.570;2023-11-18T05:38:52;102218.38;;;2.71;100.00
75221;BME280;63802;53.232;6.570;2023-11-18T05:41:17;102218.66;;;2.65;100.00
75221;BME280;63802;53.232;6.570;2023-11-18T05:43:53;102215.41;;;2.73;100.00
75221;BME280;63802;53.232;6.570;2023-11-18T05:46:19;102212.97;;;2.71;100.00
75221;BME280;63802;53.232;6.570;2023-11-18T05:48:49;102217.81;;;2.75;100.00
75221;BME280;63802;53.232;6.570;2023-11-18T05:51:19;102207.59;;;2.66;100.00
75221;BME280;63802;53.232;6.570;2023-11-18T05:53:45;102205.19;;;2.70;100.00
75221;BME280;63802;53.232;6.570;2023-11-18T05:56:12;102212.41;;;2.80;100.00
75221;BME280;63802;53.232;6.570;2023-11-18T05:58:37;102203.00;;;2.77;100.00
75221;BME280;63802;53.232;6.570;2023-11-18T06:01:06;102174.19;;;2.67;100.00
75221;BME280;63802;53.232;6.570;2023-11-18T06:03:36;102175.56;;;2.65;100.00
75221;BME280;63802;53.232;6.570;2023-11-18T06:06:07;102202.97;;;2.82;100.00
75221;BME280;63802;53.232;6.570;2023-11-18T06:08:37;102203.75;;;2.88;100.00
75221;BME280;63802;53.232;6.570;2023-11-18T06:13:51;102200.00;;;2.84;100.00
75221;BME280;63802;53.232;6.570;2023-11-18T06:16:23;102204.03;;;2.81;100.00
75221;BME280;63802;53.232;6.570;2023-11-18T06:18:57;102183.81;;;2.84;100.00
75221;BME280;63802;53.232;6.570;2023-11-18T06:21:24;102163.69;;;2.71;100.00
75221;BME280;63802;53.232;6.570;2023-11-18T06:23:53;102182.47;;;2.81;100.00
75221;BME280;63802;53.232;6.570;2023-11-18T06:26:20;102177.88;;;2.87;100.00
75221;BME280;63802;53.232;6.570;2023-11-18T06:28:46;102182.22;;;2.83;100.00
75221;BME280;63802;53.232;6.570;2023-11-18T06:31:11;102179.75;;;2.86;100.00
75221;BME280;63802;53.232;6.570;2023-11-18T06:33:38;102165.53;;;2.76;100.00
75221;BME280;63802;53.232;6.570;2023-11-18T06:36:07;102193.53;;;2.85;100.00
75221;BME280;63802;53.232;6.570;2023-11-18T06:38:33;102172.50;;;2.87;100.00
75221;BME280;63802;53.232;6.570;2023-11-18T06:41:00;102192.41;;;2.91;100.00
75221;BME280;63802;53.232;6.570;2023-11-18T06:43:28;102188.63;;;2.92;100.00
75221;BME280;63802;53.232;6.570;2023-11-18T06:46:01;102182.41;;;2.96;100.00
75221;BME280;63802;53.232;6.570;2023-11-18T06:48:27;102154.94;;;2.89;100.00
75221;BME280;63802;53.232;6.570;2023-11-18T06:50:52;102169.22;;;2.95;100.00
75221;BME280;63802;53.232;6.570;2023-11-18T06:53:17;102178.88;;;3.01;100.00
75221;BME280;63802;53.232;6.570;2023-11-18T06:55:43;102171.31;;;3.03;100.00
75221;BME280;63802;53.232;6.570;2023-11-18T06:58:08;102177.00;;;3.01;100.00
75221;BME280;63802;53.232;6.570;2023-11-18T07:00:36;102146.34;;;2.87;100.00
75221;BME280;63802;53.232;6.570;2023-11-18T07:03:02;102160.06;;;2.91;100.00
75221;BME280;63802;53.232;6.570;2023-11-18T07:05:27;102195.00;;;3.11;100.00
75221;BME280;63802;53.232;6.570;2023-11-18T07:07:54;102199.88;;;3.09;100.00
75221;BME280;63802;53.232;6.570;2023-11-18T07:10:20;102174.88;;;2.93;100.00
75221;BME280;63802;53.232;6.570;2023-11-18T07:12:46;102181.59;;;2.96;100.00
75221;BME280;63802;53.232;6.570;2023-11-18T07:15:15;102175.94;;;2.97;100.00
75221;BME280;63802;53.232;6.570;2023-11-18T07:17:42;102200.41;;;3.11;100.00
75221;BME280;63802;53.232;6.570;2023-11-18T07:20:11;102161.16;;;2.90;100.00
75221;BME280;63802;53.232;6.570;2023-11-18T07:22:39;102213.84;;;3.16;100.00
75221;BME280;63802;53.232;6.570;2023-11-18T07:25:05;102188.56;;;3.07;100.00
75221;BME280;63802;53.232;6.570;2023-11-18T07:27:34;102182.06;;;3.08;100.00
75221;BME280;63802;53.232;6.570;2023-11-18T07:30:00;102200.31;;;3.26;100.00
75221;BME280;63802;53.232;6.570;2023-11-18T07:32:25;102208.38;;;3.31;100.00
75221;BME280;63802;53.232;6.570;2023-11-18T07:34:50;102198.16;;;3.23;100.00
75221;BME280;63802;53.232;6.570;2023-11-18T07:37:16;102194.59;;;3.32;100.00
75221;BME280;63802;53.232;6.570;2023-11-18T07:39:41;102157.25;;;3.11;100.00
75221;BME280;63802;53.232;6.570;2023-11-18T07:42:11;102177.00;;;3.40;100.00
75221;BME280;63802;53.232;6.570;2023-11-18T07:44:38;102185.06;;;3.45;100.00
75221;BME280;63802;53.232;6.570;2023-11-18T07:47:04;102160.88;;;3.35;100.00
75221;BME280;63802;53.232;6.570;2023-11-18T07:49:34;102128.59;;;3.20;100.00
75221;BME280;63802;53.232;6.570;2023-11-18T07:52:00;102187.78;;;3.45;100.00
75221;BME280;63802;53.232;6.570;2023-11-18T07:54:25;102196.41;;;3.42;100.00
75221;BME280;63802;53.232;6.570;2023-11-18T07:56:52;102149.63;;;3.23;100.00
75221;BME280;63802;53.232;6.570;2023-11-18T07:59:22;102176.47;;;3.43;100.00
75221;BME280;63802;53.232;6.570;2023-11-18T08:01:51;102167.91;;;3.31;100.00
75221;BME280;63802;53.232;6.570;2023-11-18T08:04:18;102194.00;;;3.41;100.00
75221;BME280;63802;53.232;6.570;2023-11-18T08:06:46;102197.44;;;3.51;100.00
75221;BME280;63802;53.232;6.570;2023-11-18T08:09:13;102132.94;;;3.16;100.00
75221;BME280;63802;53.232;6.570;2023-11-18T08:11:40;102132.28;;;3.29;100.00
75221;BME280;63802;53.232;6.570;2023-11-18T08:14:07;102186.28;;;3.63;100.00
75221;BME280;63802;53.232;6.570;2023-11-18T08:16:33;102134.78;;;3.25;100.00
75221;BME280;63802;53.232;6.570;2023-11-18T08:18:59;102149.47;;;3.43;100.00
75221;BME280;63802;53.232;6.570;2023-11-18T08:21:27;102183.31;;;3.64;100.00
75221;BME280;63802;53.232;6.570;2023-11-18T08:23:53;102178.44;;;3.66;100.00
75221;BME280;63802;53.232;6.570;2023-11-18T08:26:19;102115.00;;;3.35;100.00
75221;BME280;63802;53.232;6.570;2023-11-18T08:28:45;102165.69;;;3.72;100.00
75221;BME280;63802;53.232;6.570;2023-11-18T08:31:13;102155.09;;;3.80;100.00
75221;BME280;63802;53.232;6.570;2023-11-18T08:33:40;102154.56;;;3.78;100.00
75221;BME280;63802;53.232;6.570;2023-11-18T08:36:07;102137.84;;;3.76;100.00
75221;BME280;63802;53.232;6.570;2023-11-18T08:38:33;102130.50;;;3.82;100.00
75221;BME280;63802;53.232;6.570;2023-11-18T08:41:00;102087.50;;;3.62;100.00
75221;BME280;63802;53.232;6.570;2023-11-18T08:43:26;102112.19;;;3.79;100.00
75221;BME280;63802;53.232;6.570;2023-11-18T08:45:54;102117.81;;;3.82;100.00
75221;BME280;63802;53.232;6.570;2023-11-18T08:48:27;102108.31;;;3.85;100.00
75221;BME280;63802;53.232;6.570;2023-11-18T08:50:56;102110.06;;;3.99;100.00
75221;BME280;63802;53.232;6.570;2023-11-18T08:53:22;102079.53;;;3.75;100.00
75221;BME280;63802;53.232;6.570;2023-11-18T08:55:51;102058.16;;;3.84;100.00
75221;BME280;63802;53.232;6.570;2023-11-18T08:58:19;102080.88;;;4.01;100.00
75221;BME280;63802;53.232;6.570;2023-11-18T09:00:55;102073.06;;;4.00;100.00
75221;BME280;63802;53.232;6.570;2023-11-18T09:03:25;102059.13;;;3.93;100.00
75221;BME280;63802;53.232;6.570;2023-11-18T09:05:54;102066.84;;;3.99;100.00
75221;BME280;63802;53.232;6.570;2023-11-18T09:08:28;102067.81;;;4.08;100.00
75221;BME280;63802;53.232;6.570;2023-11-18T09:10:58;102053.06;;;4.01;100.00
75221;BME280;63802;53.232;6.570;2023-11-18T09:13:25;102053.50;;;4.08;100.00
75221;BME280;63802;53.232;6.570;2023-11-18T09:16:07;102072.03;;;4.20;100.00
75221;BME280;63802;53.232;6.570;2023-11-18T09:18:38;102065.47;;;4.26;100.00
75221;BME280;63802;53.232;6.570;2023-11-18T09:21:05;102055.66;;;4.30;100.00
75221;BME280;63802;53.232;6.570;2023-11-18T09:23:33;102059.03;;;4.22;100.00
75221;BME280;63802;53.232;6.570;2023-11-18T09:26:00;102073.00;;;4.29;100.00
75221;BME280;63802;53.232;6.570;2023-11-18T09:28:26;102085.84;;;4.37;100.00
75221;BME280;63802;53.232;6.570;2023-11-18T09:30:55;102077.03;;;4.31;100.00
75221;BME280;63802;53.232;6.570;2023-11-18T09:33:25;102082.69;;;4.30;100.00
75221;BME280;63802;53.232;6.570;2023-11-18T09:35:55;102035.41;;;4.08;100.00
75221;BME280;63802;53.232;6.570;2023-11-18T09:38:27;102067.66;;;4.24;100.00
75221;BME280;63802;53.232;6.570;2023-11-18T09:40:53;102087.75;;;4.36;100.00
75221;BME280;63802;53.232;6.570;2023-11-18T09:43:19;102051.00;;;4.17;100.00
75221;BME280;63802;53.232;6.570;2023-11-18T09:45:56;102063.63;;;4.21;100.00
75221;BME280;63802;53.232;6.570;2023-11-18T09:48:22;102035.94;;;4.11;100.00
75221;BME280;63802;53.232;6.570;2023-11-18T09:50:51;102051.88;;;4.31;100.00
75221;BME280;63802;53.232;6.570;2023-11-18T09:53:17;102034.88;;;4.30;100.00
75221;BME280;63802;53.232;6.570;2023-11-18T09:56:07;102044.59;;;4.50;100.00
75221;BME280;63802;53.232;6.570;2023-11-18T09:58:40;102035.56;;;4.41;100.00
75221;BME280;63802;53.232;6.570;2023-11-18T10:01:10;102023.13;;;4.40;100.00
75221;BME280;63802;53.232;6.570;2023-11-18T10:03:40;102009.84;;;4.25;100.00
75221;BME280;63802;53.232;6.570;2023-11-18T10:06:08;102032.34;;;4.39;100.00
75221;BME280;63802;53.232;6.570;2023-11-18T10:08:34;102030.84;;;4.28;100.00
75221;BME280;63802;53.232;6.570;2023-11-18T10:11:01;102035.31;;;4.37;100.00
75221;BME280;63802;53.232;6.570;2023-11-18T10:13:34;102041.47;;;4.43;100.00
75221;BME280;63802;53.232;6.570;2023-11-18T10:16:08;102019.53;;;4.44;100.00
75221;BME280;63802;53.232;6.570;2023-11-18T10:18:34;102020.34;;;4.45;100.00
75221;BME280;63802;53.232;6.570;2023-11-18T10:21:03;102010.47;;;4.35;100.00
75221;BME280;63802;53.232;6.570;2023-11-18T10:23:33;102024.16;;;4.44;100.00
75221;BME280;63802;53.232;6.570;2023-11-18T10:25:59;101990.75;;;4.35;100.00
75221;BME280;63802;53.232;6.570;2023-11-18T10:28:34;102005.31;;;4.39;100.00
75221;BME280;63802;53.232;6.570;2023-11-18T10:31:01;102011.28;;;4.36;100.00
75221;BME280;63802;53.232;6.570;2023-11-18T10:33:31;101979.59;;;4.23;100.00
75221;BME280;63802;53.232;6.570;2023-11-18T10:35:57;101982.66;;;4.35;100.00
75221;BME280;63802;53.232;6.570;2023-11-18T10:38:23;101975.06;;;4.37;100.00
75221;BME280;63802;53.232;6.570;2023-11-18T10:40:57;101968.19;;;4.26;100.00
75221;BME280;63802;53.232;6.570;2023-11-18T10:43:23;101954.91;;;4.11;100.00
75221;BME280;63802;53.232;6.570;2023-11-18T10:46:07;101975.50;;;4.06;100.00
75221;BME280;63802;53.232;6.570;2023-11-18T10:48:43;101982.34;;;3.99;100.00
75221;BME280;63802;53.232;6.570;2023-11-18T10:51:10;101989.75;;;4.12;100.00
75221;BME280;63802;53.232;6.570;2023-11-18T10:53:40;101947.53;;;3.97;100.00
75221;BME280;63802;53.232;6.570;2023-11-18T10:56:18;101980.75;;;4.17;100.00
75221;BME280;63802;53.232;6.570;2023-11-18T10:58:45;101958.66;;;4.15;100.00
75221;BME280;63802;53.232;6.570;2023-11-18T11:01:11;101932.13;;;4.17;100.00
75221;BME280;63802;53.232;6.570;2023-11-18T11:03:55;101937.69;;;4.25;100.00
75221;BME280;63802;53.232;6.570;2023-11-18T11:06:25;101924.66;;;4.27;100.00
75221;BME280;63802;53.232;6.570;2023-11-18T11:08:51;101927.59;;;4.31;100.00
75221;BME280;63802;53.232;6.570;2023-11-18T11:11:20;101930.88;;;4.28;100.00
75221;BME280;63802;53.232;6.570;2023-11-18T11:13:49;101926.00;;;4.30;100.00
75221;BME280;63802;53.232;6.570;2023-11-18T11:16:18;101912.13;;;4.18;100.00
75221;BME280;63802;53.232;6.570;2023-11-18T11:18:48;101904.25;;;4.21;100.00
75221;BME280;63802;53.232;6.570;2023-11-18T11:21:20;101906.00;;;4.31;100.00
75221;BME280;63802;53.232;6.570;2023-11-18T11:24:11;101902.78;;;4.29;100.00
75221;BME280;63802;53.232;6.570;2023-11-18T11:29:30;101910.13;;;4.42;100.00
75221;BME280;63802;53.232;6.570;2023-11-18T11:32:11;101895.03;;;4.41;100.00
75221;BME280;63802;53.232;6.570;2023-11-18T11:34:53;101877.69;;;4.42;100.00
75221;BME280;63802;53.232;6.570;2023-11-18T11:37:19;101876.19;;;4.36;100.00
75221;BME280;63802;53.232;6.570;2023-11-18T11:39:48;101865.69;;;4.34;100.00
75221;BME280;63802;53.232;6.570;2023-11-18T11:42:15;101861.88;;;4.35;100.00
75221;BME280;63802;53.232;6.570;2023-11-18T11:44:46;101854.16;;;4.29;100.00
75221;BME280;63802;53.232;6.570;2023-11-18T11:47:12;101869.41;;;4.38;100.00
75221;BME280;63802;53.232;6.570;2023-11-18T11:50:10;101878.81;;;4.41;100.00
75221;BME280;63802;53.232;6.570;2023-11-18T11:52:44;101872.84;;;4.44;100.00
75221;BME280;63802;53.232;6.570;2023-11-18T11:55:23;101862.59;;;4.41;100.00
75221;BME280;63802;53.232;6.570;2023-11-18T11:57:56;101869.44;;;4.52;100.00
75221;BME280;63802;53.232;6.570;2023-11-18T12:00:23;101859.81;;;4.46;100.00
75221;BME280;63802;53.232;6.570;2023-11-18T12:02:52;101878.78;;;4.59;100.00
75221;BME280;63802;53.232;6.570;2023-11-18T12:05:25;101856.25;;;4.64;100.00
75221;BME280;63802;53.232;6.570;2023-11-18T12:07:52;101840.03;;;4.64;100.00
75221;BME280;63802;53.232;6.570;2023-11-18T12:10:20;101831.03;;;4.68;100.00
75221;BME280;63802;53.232;6.570;2023-11-18T12:12:47;101831.25;;;4.72;100.00
75221;BME280;63802;53.232;6.570;2023-11-18T12:15:13;101828.81;;;4.70;100.00
75221;BME280;63802;53.232;6.570;2023-11-18T12:18:28;101849.47;;;4.80;100.00
75221;BME280;63802;53.232;6.570;2023-11-18T12:20:44;101849.69;;;4.84;100.00
75221;BME280;63802;53.232;6.570;2023-11-18T12:23:14;101845.59;;;4.86;100.00
75221;BME280;63802;53.232;6.570;2023-11-18T12:25:40;101804.22;;;4.72;100.00
75221;BME280;63802;53.232;6.570;2023-11-18T12:28:14;101838.38;;;4.95;100.00
75221;BME280;63802;53.232;6.570;2023-11-18T12:30:45;101834.59;;;4.96;100.00
75221;BME280;63802;53.232;6.570;2023-11-18T12:33:23;101770.97;;;4.58;100.00
75221;BME280;63802;53.232;6.570;2023-11-18T12:46:59;101785.19;;;5.04;100.00
75221;BME280;63802;53.232;6.570;2023-11-18T12:49:39;101742.13;;;4.94;100.00
75221;BME280;63802;53.232;6.570;2023-11-18T12:52:11;101764.16;;;5.01;100.00
75221;BME280;63802;53.232;6.570;2023-11-18T12:54:38;101745.03;;;4.98;100.00
75221;BME280;63802;53.232;6.570;2023-11-18T12:57:08;101753.94;;;4.98;100.00
75221;BME280;63802;53.232;6.570;2023-11-18T12:59:35;101760.34;;;5.02;100.00
75221;BME280;63802;53.232;6.570;2023-11-18T13:02:01;101728.91;;;4.79;100.00
75221;BME280;63802;53.232;6.570;2023-11-18T13:04:30;101783.97;;;4.97;100.00
75221;BME280;63802;53.232;6.570;2023-11-18T13:06:56;101785.81;;;5.01;100.00
75221;BME280;63802;53.232;6.570;2023-11-18T13:09:23;101780.00;;;4.94;100.00
75221;BME280;63802;53.232;6.570;2023-11-18T13:12:02;101762.34;;;4.83;100.00
75221;BME280;63802;53.232;6.570;2023-11-18T13:14:32;101764.44;;;5.00;100.00